createdAt,value
2023-04-10T00:59:37.110Z,5.60
2023-04-10T01:02:04.529Z,2.80
2023-04-10T01:04:32.674Z,2.70
2023-04-10T01:07:36.611Z,2.70
2023-04-10T01:10:09.130Z,2.70
2023-04-10T01:12:48.708Z,2.60
2023-04-10T07:57:01.062Z,2.50
2023-04-10T07:59:31.006Z,8.20
2023-04-10T08:01:57.834Z,8.30
2023-04-10T08:04:24.711Z,8.20
2023-04-10T08:06:51.419Z,8.30
2023-04-10T08:09:18.220Z,8.20
2023-04-10T08:11:44.905Z,8.30
2023-04-10T08:14:13.349Z,8.30
2023-04-10T08:19:07.254Z,8.60
2023-04-10T08:21:33.913Z,8.80
2023-04-10T08:24:04.681Z,8.90
2023-04-10T08:26:31.323Z,8.80
2023-04-10T08:28:59.804Z,8.80
2023-04-10T08:31:28.092Z,8.90
2023-04-10T08:33:55.600Z,9.10
2023-04-10T08:36:22.930Z,9.20
2023-04-10T08:38:49.869Z,9.40
2023-04-10T08:41:19.411Z,9.50
2023-04-10T08:43:46.691Z,9.50
2023-04-10T08:46:14.749Z,9.60
2023-04-10T08:48:51.605Z,9.80
2023-04-10T08:51:26.172Z,9.90
2023-04-10T08:53:58.408Z,10.00
2023-04-10T08:56:25.975Z,10.00
2023-04-10T08:58:53.073Z,10.10
2023-04-10T09:01:21.772Z,10.20
2023-04-10T09:03:48.997Z,10.30
2023-04-10T09:06:15.787Z,10.40
2023-04-10T09:08:42.518Z,10.40
2023-04-10T09:11:09.137Z,10.60
2023-04-10T09:13:40.731Z,10.70
2023-04-10T09:16:08.775Z,10.70
2023-04-10T09:18:49.855Z,10.70
2023-04-10T09:21:19.321Z,10.70
2023-04-10T09:23:47.238Z,10.70
2023-04-10T09:26:25.924Z,10.70
2023-04-10T09:29:00.231Z,10.60
2023-04-10T09:31:38.018Z,10.70
2023-04-10T09:34:13.158Z,10.80
2023-04-10T09:36:41.719Z,10.80
2023-04-10T09:44:11.296Z,11.00
2023-04-10T09:46:38.368Z,11.20
2023-04-10T09:49:07.002Z,11.30
2023-04-10T09:51:37.081Z,11.40
2023-04-10T09:54:04.561Z,11.40
2023-04-10T09:56:32.723Z,11.60
2023-04-10T09:59:01.278Z,11.90
2023-04-10T10:04:01.714Z,12.10
2023-04-10T10:06:29.962Z,12.00
2023-04-10T10:08:57.157Z,11.90
2023-04-10T10:11:26.076Z,11.90
2023-04-10T10:13:54.714Z,12.10
2023-04-10T10:16:34.939Z,11.90
2023-04-10T10:19:08.521Z,12.00
2023-04-10T10:21:36.791Z,12.10
2023-04-10T10:24:07.315Z,12.20
2023-04-10T10:36:37.909Z,12.30
2023-04-10T10:39:14.135Z,12.80
2023-04-10T10:42:07.410Z,12.80
2023-04-10T10:44:47.151Z,12.70
2023-04-10T10:47:24.206Z,12.60
2023-04-10T10:49:54.971Z,12.70
2023-04-10T10:52:43.648Z,12.90
2023-04-10T10:55:36.393Z,12.90
2023-04-10T10:58:07.846Z,13.20
2023-04-10T11:00:52.773Z,13.00
2023-04-10T11:03:19.540Z,12.90
2023-04-10T11:06:09.457Z,13.00
2023-04-10T11:08:43.269Z,13.10
2023-04-10T11:11:12.968Z,13.20
2023-04-10T11:13:49.664Z,13.50
2023-04-10T11:16:16.368Z,13.70
2023-04-10T11:18:46.088Z,13.70
2023-04-10T11:21:15.186Z,13.70
2023-04-10T11:23:50.845Z,13.50
2023-04-10T11:26:35.915Z,13.60
2023-04-10T11:29:17.557Z,13.80
2023-04-10T11:31:57.084Z,13.80
2023-04-10T11:34:23.993Z,13.80
2023-04-10T11:36:50.892Z,13.80
2023-04-10T11:39:19.040Z,13.80
2023-04-10T11:41:50.762Z,14.00
2023-04-10T11:44:40.881Z,14.00
2023-04-10T11:47:12.236Z,14.20
2023-04-10T11:49:39.198Z,14.40
2023-04-10T11:52:05.953Z,14.40
2023-04-10T11:54:32.748Z,14.40
2023-04-10T11:57:01.166Z,14.40
2023-04-10T11:59:29.052Z,14.20
2023-04-10T12:02:10.360Z,14.20
2023-04-10T12:04:37.977Z,14.50
2023-04-10T12:07:04.728Z,14.60
2023-04-10T12:09:31.689Z,14.80
2023-04-10T12:12:04.057Z,15.00
2023-04-10T12:14:39.433Z,14.80
2023-04-10T12:17:11.708Z,14.90
2023-04-10T12:19:39.330Z,15.20
2023-04-10T12:32:13.216Z,15.20
2023-04-10T12:34:40.251Z,15.60
2023-04-10T12:37:07.796Z,15.40
2023-04-10T12:39:34.439Z,15.30
2023-04-10T12:42:23.331Z,15.30
2023-04-10T12:45:00.669Z,15.60
2023-04-10T12:50:17.363Z,15.90
2023-04-10T12:52:46.001Z,15.70
2023-04-10T12:55:18.055Z,15.80
2023-04-10T12:57:46.567Z,16.30
2023-04-10T13:00:15.987Z,16.10
2023-04-10T13:02:42.958Z,16.00
2023-04-10T13:05:11.059Z,16.20
2023-04-10T13:07:38.404Z,16.40
2023-04-10T13:10:06.083Z,16.00
2023-04-10T13:12:34.723Z,15.70
2023-04-10T13:15:01.748Z,15.30
2023-04-10T13:17:28.717Z,15.80
2023-04-10T13:19:55.342Z,16.20
2023-04-10T13:22:21.910Z,16.20
2023-04-10T13:56:46.373Z,16.20
2023-04-10T14:01:40.426Z,17.80
2023-04-10T14:04:07.387Z,18.70
2023-04-10T14:06:34.308Z,19.40
2023-04-10T14:09:01.105Z,19.10
2023-04-10T14:11:27.762Z,19.20
2023-04-10T14:16:21.503Z,19.40
2023-04-10T14:18:48.252Z,21.30
2023-04-10T14:21:14.916Z,20.80
2023-04-10T14:23:42.903Z,20.60
2023-04-10T14:26:09.555Z,20.50
